Time;durP1;ratioP1;P1;durP2;ratioP2;P2;SDS_P1;SDS_P2;PMS_P1;PMS_P2;Temp;Humidity;BMP_temperature;BMP_pressure;BME280_temperature;BME280_humidity;BME280_pressure;Samples;Min_cycle;Max_cycle;Signal;HPM_P1;HPM_P2
2022/11/18 00:01:06;;;;;;;45.05;29.85;;;;;;;;;;5007369;28;20026;-74
2022/11/18 00:03:32;;;;;;;51.40;30.73;;;;;;;;;;5007039;28;20491;-75
2022/11/18 00:06:01;;;;;;;42.83;27.88;;;;;;;;;;5005773;28;20069;-75
2022/11/18 00:08:27;;;;;;;51.58;32.05;;;;;;;;;;5009780;28;20553;-77
2022/11/18 00:10:53;;;;;;;45.03;29.25;;;;;;;;;;5005041;28;20121;-76
2022/11/18 00:16:10;;;;;;;47.03;29.70;;;;;;;;;;5009324;28;20034;-77
2022/11/18 00:18:36;;;;;;;41.40;27.88;;;;;;;;;;5007176;28;20392;-76
2022/11/18 00:21:14;;;;;;;46.50;28.50;;;;;;;;;;5003200;28;20050;-77
2022/11/18 00:23:40;;;;;;;38.58;25.70;;;;;;;;;;5000602;28;20518;-76
2022/11/18 00:26:13;;;;;;;39.33;25.23;;;;;;;;;;5009485;28;20042;-76
2022/11/18 00:28:43;;;;;;;42.50;25.13;;;;;;;;;;5007706;28;20037;-76
2022/11/18 00:31:15;;;;;;;38.88;24.58;;;;;;;;;;5005933;28;20410;-76
2022/11/18 00:33:41;;;;;;;36.92;24.42;;;;;;;;;;5004933;28;20161;-75
2022/11/18 00:36:10;;;;;;;34.45;22.77;;;;;;;;;;5006225;28;20022;-75
2022/11/18 00:38:38;;;;;;;37.05;23.30;;;;;;;;;;5004993;28;20124;-75
2022/11/18 00:41:13;;;;;;;40.45;23.02;;;;;;;;;;5005501;28;20046;-74
2022/11/18 00:43:39;;;;;;;33.13;21.63;;;;;;;;;;5006096;28;20088;-74
2022/11/18 00:46:09;;;;;;;32.72;20.90;;;;;;;;;;5005340;28;20034;-75
2022/11/18 00:48:36;;;;;;;38.88;22.58;;;;;;;;;;5006057;28;20358;-75
2022/11/18 00:51:14;;;;;;;39.50;22.70;;;;;;;;;;5006760;28;20033;-74
2022/11/18 00:53:41;;;;;;;36.72;21.30;;;;;;;;;;5006141;28;20049;-75
2022/11/18 00:56:08;;;;;;;39.45;21.33;;;;;;;;;;5007871;28;20025;-75
2022/11/18 00:58:37;;;;;;;33.95;20.08;;;;;;;;;;5007935;28;20034;-76
2022/11/18 01:01:03;;;;;;;33.88;20.50;;;;;;;;;;5008579;28;20045;-75
2022/11/18 01:03:29;;;;;;;37.65;21.30;;;;;;;;;;5004561;28;20030;-75
2022/11/18 01:05:55;;;;;;;32.45;19.50;;;;;;;;;;5007459;28;20029;-75
2022/11/18 01:08:22;;;;;;;35.60;20.23;;;;;;;;;;5007607;28;20036;-76
2022/11/18 01:10:49;;;;;;;31.92;19.83;;;;;;;;;;5006889;28;20092;-74
2022/11/18 01:13:18;;;;;;;31.77;19.27;;;;;;;;;;5006886;28;20061;-75
2022/11/18 01:15:47;;;;;;;37.40;22.90;;;;;;;;;;5007128;28;20121;-76
2022/11/18 01:18:15;;;;;;;36.50;21.55;;;;;;;;;;5003823;28;20495;-74
2022/11/18 01:20:41;;;;;;;30.92;19.40;;;;;;;;;;4996972;28;20092;-75
2022/11/18 01:23:07;;;;;;;30.30;20.77;;;;;;;;;;5006266;28;20033;-75
2022/11/18 01:25:36;;;;;;;34.75;21.05;;;;;;;;;;5007329;28;20037;-74
2022/11/18 01:28:03;;;;;;;33.28;20.65;;;;;;;;;;5007914;28;20495;-75
2022/11/18 01:30:32;;;;;;;35.47;21.50;;;;;;;;;;5007623;28;20037;-75
2022/11/18 01:32:59;;;;;;;36.42;22.10;;;;;;;;;;5010307;28;20571;-76
2022/11/18 01:35:24;;;;;;;36.13;21.23;;;;;;;;;;5009589;28;20116;-74
2022/11/18 01:37:51;;;;;;;42.33;23.02;;;;;;;;;;5008627;28;20025;-74
2022/11/18 01:40:17;;;;;;;36.17;22.02;;;;;;;;;;5006642;28;20034;-74
2022/11/18 01:42:43;;;;;;;32.22;20.00;;;;;;;;;;5007190;28;20041;-75
2022/11/18 01:45:23;;;;;;;33.72;20.48;;;;;;;;;;5008210;28;20065;-74
2022/11/18 01:48:02;;;;;;;31.88;19.25;;;;;;;;;;5006658;28;20125;-74
2022/11/18 01:50:29;;;;;;;28.98;18.30;;;;;;;;;;5007261;28;20440;-76
2022/11/18 01:53:01;;;;;;;27.15;17.95;;;;;;;;;;5007588;28;20030;-76
2022/11/18 01:55:32;;;;;;;32.10;18.35;;;;;;;;;;5007753;28;20038;-76
2022/11/18 01:58:06;;;;;;;32.83;18.42;;;;;;;;;;5007334;28;20061;-76
2022/11/18 02:00:32;;;;;;;30.33;19.48;;;;;;;;;;5007708;28;20507;-76
2022/11/18 02:03:00;;;;;;;31.05;17.85;;;;;;;;;;5007244;28;20037;-74
2022/11/18 02:05:27;;;;;;;36.33;18.80;;;;;;;;;;5007822;28;20045;-74
2022/11/18 02:07:53;;;;;;;32.33;19.75;;;;;;;;;;5007634;28;20033;-75
2022/11/18 02:10:23;;;;;;;38.88;19.48;;;;;;;;;;5008114;28;20407;-74
2022/11/18 02:12:51;;;;;;;30.98;17.88;;;;;;;;;;5006704;28;20407;-74
2022/11/18 02:15:25;;;;;;;27.20;18.40;;;;;;;;;;5008774;28;20025;-75
2022/11/18 02:18:03;;;;;;;33.25;19.33;;;;;;;;;;5009814;28;20037;-76
2022/11/18 02:20:38;;;;;;;25.55;17.63;;;;;;;;;;4995721;28;20054;-74
2022/11/18 02:23:44;;;;;;;26.80;17.27;;;;;;;;;;4975168;28;20038;-76
2022/11/18 02:26:10;;;;;;;27.85;16.92;;;;;;;;;;4990380;28;20180;-75
2022/11/18 02:29:01;;;;;;;29.77;17.00;;;;;;;;;;4991430;28;20050;-75
2022/11/18 02:31:53;;;;;;;28.48;17.38;;;;;;;;;;5008654;28;20041;-75
2022/11/18 02:34:31;;;;;;;26.38;16.70;;;;;;;;;;4997599;28;20077;-76
2022/11/18 02:37:14;;;;;;;24.38;15.63;;;;;;;;;;4992591;28;20165;-76
2022/11/18 02:39:52;;;;;;;32.47;15.88;;;;;;;;;;5002805;28;20550;-76
2022/11/18 02:42:19;;;;;;;27.33;16.15;;;;;;;;;;5011497;28;20105;-74
2022/11/18 02:44:51;;;;;;;29.52;15.93;;;;;;;;;;5010937;28;20069;-75
2022/11/18 02:47:21;;;;;;;24.08;14.85;;;;;;;;;;5008277;28;20065;-75
2022/11/18 02:49:52;;;;;;;27.58;15.13;;;;;;;;;;5011145;28;20518;-75
2022/11/18 02:52:20;;;;;;;24.23;14.43;;;;;;;;;;5012134;28;20041;-75
2022/11/18 02:54:48;;;;;;;27.90;14.57;;;;;;;;;;5010777;28;20029;-74
2022/11/18 02:57:14;;;;;;;26.77;14.13;;;;;;;;;;5009229;28;20050;-76
2022/11/18 02:59:40;;;;;;;26.17;14.60;;;;;;;;;;5008562;28;20053;-75
2022/11/18 03:02:14;;;;;;;20.02;12.48;;;;;;;;;;5008439;28;20042;-76
2022/11/18 03:04:40;;;;;;;19.83;12.55;;;;;;;;;;5007208;28;20034;-75
2022/11/18 03:07:17;;;;;;;18.90;12.25;;;;;;;;;;5008007;28;20053;-76
2022/11/18 03:09:47;;;;;;;19.88;11.60;;;;;;;;;;5005690;28;20069;-75
2022/11/18 03:12:32;;;;;;;19.23;11.23;;;;;;;;;;5006564;28;20038;-75
2022/11/18 03:15:09;;;;;;;15.27;10.65;;;;;;;;;;5007846;28;20037;-74
2022/11/18 03:18:00;;;;;;;17.00;11.02;;;;;;;;;;5007234;28;20108;-76
2022/11/18 03:20:34;;;;;;;27.52;11.40;;;;;;;;;;5007607;28;20506;-76
2022/11/18 03:23:05;;;;;;;18.92;11.45;;;;;;;;;;5007670;28;20117;-75
2022/11/18 03:25:47;;;;;;;17.40;10.27;;;;;;;;;;5007474;28;20054;-76
2022/11/18 03:28:17;;;;;;;13.87;9.87;;;;;;;;;;5006322;28;20125;-75
2022/11/18 03:30:53;;;;;;;20.58;11.40;;;;;;;;;;5005999;28;21134;-76
2022/11/18 03:33:25;;;;;;;22.25;10.68;;;;;;;;;;5007290;28;20136;-76
2022/11/18 03:35:53;;;;;;;18.83;9.98;;;;;;;;;;5006865;28;20034;-76
2022/11/18 03:38:25;;;;;;;17.00;10.38;;;;;;;;;;5007824;28;20169;-75
2022/11/18 03:40:57;;;;;;;19.10;9.93;;;;;;;;;;5006759;28;20137;-75
2022/11/18 03:43:28;;;;;;;19.15;10.90;;;;;;;;;;5010864;28;20054;-75
2022/11/18 03:46:01;;;;;;;16.45;10.00;;;;;;;;;;5011305;28;20432;-75
2022/11/18 03:48:35;;;;;;;20.02;10.45;;;;;;;;;;5011619;28;20041;-74
2022/11/18 03:51:06;;;;;;;19.08;11.13;;;;;;;;;;5011206;28;20046;-75
2022/11/18 03:53:36;;;;;;;15.40;10.98;;;;;;;;;;5013326;28;20070;-76
2022/11/18 03:56:09;;;;;;;20.55;10.82;;;;;;;;;;5026694;28;20042;-76
2022/11/18 03:58:47;;;;;;;22.33;11.43;;;;;;;;;;5012896;28;20061;-76
2022/11/18 04:01:23;;;;;;;17.70;10.80;;;;;;;;;;5008387;28;20411;-74
2022/11/18 04:03:49;;;;;;;19.50;11.02;;;;;;;;;;5011681;28;20129;-75
2022/11/18 04:06:27;;;;;;;17.80;10.98;;;;;;;;;;5011447;28;20167;-75
2022/11/18 04:08:58;;;;;;;19.55;11.95;;;;;;;;;;5010605;28;20038;-75
2022/11/18 04:14:17;;;;;;;17.45;10.48;;;;;;;;;;5010968;28;20105;-75
2022/11/18 04:16:44;;;;;;;20.48;10.52;;;;;;;;;;5010212;28;20036;-74
2022/11/18 04:19:10;;;;;;;16.33;10.30;;;;;;;;;;5009509;28;20042;-75
2022/11/18 04:21:37;;;;;;;20.45;10.48;;;;;;;;;;5008195;28;20068;-74
2022/11/18 04:24:04;;;;;;;21.35;11.00;;;;;;;;;;5009873;28;20034;-75
2022/11/18 04:26:30;;;;;;;18.42;10.27;;;;;;;;;;5009338;28;20048;-75
2022/11/18 04:28:56;;;;;;;17.35;10.95;;;;;;;;;;5009784;28;20095;-75
2022/11/18 04:31:22;;;;;;;24.17;11.25;;;;;;;;;;5009115;28;20033;-75
2022/11/18 04:33:48;;;;;;;21.58;10.55;;;;;;;;;;5009183;28;20037;-75
2022/11/18 04:36:15;;;;;;;16.02;10.23;;;;;;;;;;5010619;28;20041;-75
2022/11/18 04:38:41;;;;;;;24.02;10.90;;;;;;;;;;5010765;28;20510;-76
2022/11/18 04:41:07;;;;;;;30.20;12.00;;;;;;;;;;5008394;28;20034;-75
2022/11/18 04:43:33;;;;;;;30.08;11.40;;;;;;;;;;4992729;28;20522;-77
2022/11/18 04:45:58;;;;;;;22.27;10.88;;;;;;;;;;5007774;28;20101;-76
2022/11/18 04:48:24;;;;;;;29.00;12.60;;;;;;;;;;5009842;28;20049;-75
2022/11/18 04:50:50;;;;;;;38.00;13.23;;;;;;;;;;5008586;28;20037;-75
2022/11/18 04:53:16;;;;;;;22.40;12.30;;;;;;;;;;5008496;28;20050;-76
2022/11/18 04:55:42;;;;;;;36.17;15.10;;;;;;;;;;5008200;28;20026;-74
2022/11/18 04:58:08;;;;;;;32.38;14.90;;;;;;;;;;5008809;28;20072;-76
2022/11/18 05:00:34;;;;;;;26.52;15.95;;;;;;;;;;5008181;28;20479;-76
2022/11/18 05:03:00;;;;;;;30.17;15.00;;;;;;;;;;5008855;28;20087;-74
2022/11/18 05:05:26;;;;;;;31.95;15.93;;;;;;;;;;5008341;28;20030;-76
2022/11/18 05:07:52;;;;;;;27.73;16.10;;;;;;;;;;5003718;28;20025;-76
2022/11/18 05:10:19;;;;;;;33.47;18.15;;;;;;;;;;5008726;28;20483;-76
2022/11/18 05:12:48;;;;;;;31.52;18.95;;;;;;;;;;5008966;28;20025;-76
2022/11/18 05:15:19;;;;;;;32.80;18.67;;;;;;;;;;5015246;28;20100;-78
2022/11/18 05:17:46;;;;;;;40.90;19.10;;;;;;;;;;5009862;28;20133;-73
2022/11/18 05:20:13;;;;;;;34.03;18.90;;;;;;;;;;5007293;28;20122;-74
2022/11/18 05:22:40;;;;;;;39.58;17.73;;;;;;;;;;5007339;28;20065;-72
2022/11/18 05:25:07;;;;;;;32.40;17.15;;;;;;;;;;5009799;28;20500;-73
2022/11/18 05:27:33;;;;;;;32.85;18.67;;;;;;;;;;5008674;28;20025;-74
2022/11/18 05:29:59;;;;;;;29.88;18.15;;;;;;;;;;5010555;28;20029;-74
2022/11/18 05:32:25;;;;;;;36.17;19.63;;;;;;;;;;5008767;28;20038;-73
2022/11/18 05:34:51;;;;;;;36.08;19.42;;;;;;;;;;5012303;28;20072;-73
2022/11/18 05:37:17;;;;;;;42.55;19.13;;;;;;;;;;4993747;28;20034;-73
2022/11/18 05:39:43;;;;;;;30.27;16.98;;;;;;;;;;5010604;28;20101;-73
2022/11/18 05:44:54;;;;;;;40.63;17.65;;;;;;;;;;5010913;28;20057;-73
2022/11/18 05:47:20;;;;;;;43.13;16.45;;;;;;;;;;5002830;28;20061;-73
2022/11/18 05:49:46;;;;;;;32.35;17.05;;;;;;;;;;4993624;28;20049;-73
2022/11/18 05:52:12;;;;;;;39.33;17.77;;;;;;;;;;4993648;28;20041;-74
2022/11/18 05:54:43;;;;;;;36.75;16.25;;;;;;;;;;5009916;28;20117;-72
2022/11/18 05:57:09;;;;;;;40.95;15.38;;;;;;;;;;5013393;28;20112;-73
2022/11/18 05:59:35;;;;;;;31.77;16.95;;;;;;;;;;5012811;28;20472;-73
2022/11/18 06:02:06;;;;;;;27.42;14.18;;;;;;;;;;5012812;28;20494;-73
2022/11/18 06:04:49;;;;;;;27.05;12.98;;;;;;;;;;5013118;28;20034;-73
2022/11/18 06:07:26;;;;;;;20.67;13.63;;;;;;;;;;5013475;28;20053;-74
2022/11/18 06:09:57;;;;;;;19.02;11.30;;;;;;;;;;5012898;28;20431;-73
2022/11/18 06:12:28;;;;;;;20.00;12.02;;;;;;;;;;5011583;28;20112;-73
2022/11/18 06:15:06;;;;;;;18.60;11.63;;;;;;;;;;5012317;28;20100;-72
2022/11/18 06:17:39;;;;;;;16.27;9.93;;;;;;;;;;4994899;28;20115;-73
2022/11/18 06:20:05;;;;;;;;;;;;;;;;;;5013346;28;20034;-74
2022/11/18 06:22:33;;;;;;;17.73;10.52;;;;;;;;;;5012519;28;20363;-73
2022/11/18 06:25:00;;;;;;;30.27;12.40;;;;;;;;;;5012364;28;20030;-75
2022/11/18 06:27:27;;;;;;;17.08;10.25;;;;;;;;;;4978789;28;20038;-74
2022/11/18 06:29:54;;;;;;;15.52;11.27;;;;;;;;;;5012744;28;20041;-73
2022/11/18 06:32:21;;;;;;;15.65;10.90;;;;;;;;;;5013435;28;20017;-73
2022/11/18 06:34:48;;;;;;;17.50;10.85;;;;;;;;;;5011906;28;20034;-73
2022/11/18 06:37:16;;;;;;;20.58;10.88;;;;;;;;;;5012777;28;20384;-74
2022/11/18 06:39:43;;;;;;;22.42;11.23;;;;;;;;;;5011975;28;20587;-73
2022/11/18 06:42:08;;;;;;;16.88;11.05;;;;;;;;;;5011003;28;20120;-74
2022/11/18 06:44:34;;;;;;;18.80;10.35;;;;;;;;;;5012314;28;20082;-73
2022/11/18 06:47:01;;;;;;;21.50;11.25;;;;;;;;;;5012494;28;20058;-73
2022/11/18 06:49:28;;;;;;;19.13;10.32;;;;;;;;;;5012383;28;20042;-73
2022/11/18 06:51:54;;;;;;;15.25;9.77;;;;;;;;;;5012778;28;20056;-74
2022/11/18 06:54:21;;;;;;;15.88;10.25;;;;;;;;;;5012526;28;20368;-72
2022/11/18 06:56:46;;;;;;;15.73;9.75;;;;;;;;;;5011277;28;20026;-72
2022/11/18 06:59:13;;;;;;;16.90;9.43;;;;;;;;;;5012221;28;20372;-73
2022/11/18 07:01:40;;;;;;;18.45;10.45;;;;;;;;;;5012527;28;20021;-73
2022/11/18 07:04:07;;;;;;;15.13;9.95;;;;;;;;;;5012720;28;20038;-73
2022/11/18 07:06:35;;;;;;;16.75;9.77;;;;;;;;;;4995201;28;20033;-73
2022/11/18 07:09:04;;;;;;;15.70;9.93;;;;;;;;;;5013251;28;20042;-73
2022/11/18 07:11:32;;;;;;;17.60;9.95;;;;;;;;;;5012025;28;20033;-74
2022/11/18 07:14:00;;;;;;;25.05;11.50;;;;;;;;;;5012621;28;20048;-74
2022/11/18 07:16:26;;;;;;;20.63;10.13;;;;;;;;;;5014060;28;20022;-74
2022/11/18 07:18:54;;;;;;;18.48;10.27;;;;;;;;;;5016536;28;20065;-75
2022/11/18 07:21:22;;;;;;;24.13;10.35;;;;;;;;;;5015632;28;20049;-74
2022/11/18 07:23:49;;;;;;;18.95;11.27;;;;;;;;;;4997449;28;20041;-74
2022/11/18 07:26:15;;;;;;;29.23;15.93;;;;;;;;;;5014315;28;20037;-74
2022/11/18 07:28:43;;;;;;;18.50;10.48;;;;;;;;;;5015891;28;20117;-73
2022/11/18 07:31:14;;;;;;;20.55;10.13;;;;;;;;;;5016099;28;20072;-73
2022/11/18 07:33:41;;;;;;;15.88;9.80;;;;;;;;;;5014429;28;20380;-73
2022/11/18 07:36:13;;;;;;;20.90;10.30;;;;;;;;;;5016206;28;20029;-73
2022/11/18 07:38:39;;;;;;;12.40;9.27;;;;;;;;;;5007149;28;20038;-72
2022/11/18 07:41:38;;;;;;;12.75;9.30;;;;;;;;;;4994809;28;20041;-73
2022/11/18 07:44:05;;;;;;;14.80;9.63;;;;;;;;;;4991888;28;20038;-73
2022/11/18 07:46:33;;;;;;;17.45;9.43;;;;;;;;;;4995976;28;20100;-73
2022/11/18 07:49:01;;;;;;;16.40;9.43;;;;;;;;;;4995521;28;20161;-73
2022/11/18 07:51:30;;;;;;;17.98;8.77;;;;;;;;;;4999588;28;20029;-74
2022/11/18 07:53:56;;;;;;;12.95;7.70;;;;;;;;;;5015326;28;20068;-73
2022/11/18 07:56:23;;;;;;;11.82;7.65;;;;;;;;;;5014227;28;20571;-72
2022/11/18 07:58:53;;;;;;;16.85;7.82;;;;;;;;;;5015370;28;20046;-73
2022/11/18 08:01:21;;;;;;;13.48;8.38;;;;;;;;;;5015018;28;20061;-71
2022/11/18 08:03:48;;;;;;;16.08;8.68;;;;;;;;;;5014629;28;20026;-72
2022/11/18 08:06:16;;;;;;;16.63;10.68;;;;;;;;;;5014528;28;20484;-71
2022/11/18 08:08:44;;;;;;;19.77;9.52;;;;;;;;;;5013501;28;20033;-72
2022/11/18 08:11:13;;;;;;;20.05;8.00;;;;;;;;;;5013644;28;20033;-74
2022/11/18 08:13:39;;;;;;;15.02;7.72;;;;;;;;;;5013543;28;20032;-73
2022/11/18 08:16:13;;;;;;;19.75;10.07;;;;;;;;;;5011965;28;20034;-72
2022/11/18 08:18:39;;;;;;;13.23;7.03;;;;;;;;;;5013116;28;20060;-71
2022/11/18 08:21:06;;;;;;;13.95;7.93;;;;;;;;;;5011661;28;20042;-73
2022/11/18 08:23:32;;;;;;;14.10;8.38;;;;;;;;;;5011499;28;20133;-74
2022/11/18 08:26:08;;;;;;;14.52;7.28;;;;;;;;;;5006654;28;20125;-75
2022/11/18 08:28:34;;;;;;;12.10;7.30;;;;;;;;;;4996798;28;20087;-74
2022/11/18 08:31:07;;;;;;;17.00;8.63;;;;;;;;;;4996936;28;20042;-74
2022/11/18 08:33:33;;;;;;;;;;;;;;;;;;5000676;28;20053;-74
2022/11/18 08:36:24;;;;;;;16.38;8.60;;;;;;;;;;5016213;28;19909;-74
2022/11/18 08:38:51;;;;;;;16.67;8.15;;;;;;;;;;5014495;28;20038;-73
2022/11/18 08:41:33;;;;;;;15.15;7.72;;;;;;;;;;5014245;28;20057;-74
2022/11/18 08:44:00;;;;;;;12.95;8.05;;;;;;;;;;5013244;28;20029;-74
2022/11/18 08:46:28;;;;;;;12.23;7.20;;;;;;;;;;5013002;28;20125;-73
2022/11/18 08:48:54;;;;;;;14.38;7.32;;;;;;;;;;5012523;28;20037;-73
2022/11/18 08:51:20;;;;;;;12.68;6.35;;;;;;;;;;5012753;28;20153;-76
2022/11/18 08:53:46;;;;;;;12.23;6.93;;;;;;;;;;4996637;28;20117;-74
2022/11/18 08:56:19;;;;;;;9.38;6.53;;;;;;;;;;5013036;28;20600;-73
2022/11/18 08:58:45;;;;;;;10.75;6.70;;;;;;;;;;5013104;28;20041;-74
2022/11/18 09:01:12;;;;;;;12.15;6.35;;;;;;;;;;5014327;28;20483;-75
2022/11/18 09:03:38;;;;;;;9.23;5.32;;;;;;;;;;5015139;28;20491;-75
2022/11/18 09:06:17;;;;;;;10.77;5.22;;;;;;;;;;5013413;28;20026;-76
2022/11/18 09:08:44;;;;;;;9.35;4.95;;;;;;;;;;5014081;28;20033;-74
2022/11/18 09:11:17;;;;;;;7.63;3.92;;;;;;;;;;5014226;28;20111;-75
2022/11/18 09:13:43;;;;;;;7.18;3.47;;;;;;;;;;4994827;28;20162;-74
2022/11/18 09:16:09;;;;;;;7.75;3.38;;;;;;;;;;4994898;28;20459;-76
2022/11/18 09:18:36;;;;;;;16.15;3.95;;;;;;;;;;4994598;28;20034;-75
2022/11/18 09:21:06;;;;;;;8.23;3.30;;;;;;;;;;4994246;28;20038;-74
2022/11/18 09:23:33;;;;;;;4.38;2.80;;;;;;;;;;4993088;28;20045;-75
2022/11/18 09:26:04;;;;;;;4.97;2.90;;;;;;;;;;4995117;28;20129;-75
2022/11/18 09:28:30;;;;;;;7.07;3.20;;;;;;;;;;4995895;28;20324;-75
2022/11/18 09:30:56;;;;;;;11.05;2.90;;;;;;;;;;4997979;28;20057;-76
2022/11/18 09:33:23;;;;;;;4.43;2.53;;;;;;;;;;4997132;28;20057;-74
2022/11/18 09:35:49;;;;;;;8.23;2.97;;;;;;;;;;5008541;28;20431;-72
2022/11/18 09:38:16;;;;;;;7.63;3.30;;;;;;;;;;5008970;28;20120;-73
2022/11/18 09:41:06;;;;;;;6.45;3.22;;;;;;;;;;5013858;28;20121;-74
2022/11/18 09:44:00;;;;;;;5.80;3.40;;;;;;;;;;5013477;28;20065;-73
2022/11/18 09:46:47;;;;;;;7.38;3.40;;;;;;;;;;5012852;28;20045;-72
2022/11/18 09:49:27;;;;;;;4.93;3.88;;;;;;;;;;5013107;28;20037;-71
2022/11/18 09:51:54;;;;;;;5.35;3.30;;;;;;;;;;4993799;28;20360;-71
2022/11/18 09:54:23;;;;;;;7.15;2.72;;;;;;;;;;5003565;28;20034;-72
2022/11/18 09:56:51;;;;;;;5.82;3.05;;;;;;;;;;5013736;28;20033;-72
2022/11/18 09:59:19;;;;;;;8.15;3.03;;;;;;;;;;5013354;28;20443;-72
2022/11/18 10:01:47;;;;;;;4.65;2.70;;;;;;;;;;5012916;28;20440;-74
2022/11/18 10:04:15;;;;;;;5.00;2.90;;;;;;;;;;5011568;28;20103;-74
2022/11/18 10:06:42;;;;;;;7.03;2.80;;;;;;;;;;5012846;28;20042;-73
2022/11/18 10:09:19;;;;;;;10.68;3.28;;;;;;;;;;5012949;28;20054;-72
2022/11/18 10:11:51;;;;;;;5.90;2.75;;;;;;;;;;5012972;28;20042;-72
2022/11/18 10:14:24;;;;;;;6.45;3.35;;;;;;;;;;5012726;28;20080;-72
2022/11/18 10:17:22;;;;;;;6.90;2.67;;;;;;;;;;5009847;28;20041;-73
2022/11/18 10:20:02;;;;;;;5.78;2.70;;;;;;;;;;5010818;28;20303;-73
2022/11/18 10:22:46;;;;;;;7.22;3.60;;;;;;;;;;5009425;28;20049;-73
2022/11/18 10:25:14;;;;;;;6.25;2.88;;;;;;;;;;5008580;28;20345;-71
2022/11/18 10:27:43;;;;;;;5.15;2.60;;;;;;;;;;5012547;28;20030;-72
2022/11/18 10:30:22;;;;;;;5.30;2.80;;;;;;;;;;5012883;28;20033;-72
2022/11/18 10:32:57;;;;;;;5.25;2.65;;;;;;;;;;5011695;28;20042;-73
2022/11/18 10:35:31;;;;;;;7.68;3.22;;;;;;;;;;5011316;28;20036;-73
2022/11/18 10:38:12;;;;;;;5.05;2.90;;;;;;;;;;4992281;28;20081;-73
2022/11/18 10:40:57;;;;;;;5.82;2.88;;;;;;;;;;4992308;28;20030;-73
2022/11/18 10:43:42;;;;;;;6.93;2.30;;;;;;;;;;4992311;28;20030;-73
2022/11/18 10:46:38;;;;;;;9.73;3.05;;;;;;;;;;4992692;28;20042;-72
2022/11/18 10:49:08;;;;;;;9.48;2.63;;;;;;;;;;4992714;28;20034;-73
2022/11/18 10:52:01;;;;;;;6.28;2.80;;;;;;;;;;4999630;28;20121;-72
2022/11/18 10:54:27;;;;;;;6.30;2.67;;;;;;;;;;4998421;28;20516;-72
2022/11/18 10:56:55;;;;;;;7.82;3.05;;;;;;;;;;5000391;28;20033;-72
2022/11/18 10:59:30;;;;;;;5.50;2.70;;;;;;;;;;5000459;28;20178;-73
2022/11/18 11:02:30;;;;;;;4.88;2.30;;;;;;;;;;5003935;28;20550;-74
2022/11/18 11:05:01;;;;;;;6.85;2.50;;;;;;;;;;4996502;28;20054;-71
2022/11/18 11:07:37;;;;;;;4.90;2.50;;;;;;;;;;4997471;28;20060;-73
2022/11/18 11:10:03;;;;;;;5.95;2.40;;;;;;;;;;4998582;28;20034;-73
2022/11/18 11:12:45;;;;;;;4.70;2.20;;;;;;;;;;5006981;28;20439;-74
2022/11/18 11:15:32;;;;;;;5.53;2.35;;;;;;;;;;5004030;28;20026;-73
2022/11/18 11:20:58;;;;;;;10.73;2.50;;;;;;;;;;4999242;28;20053;-72
2022/11/18 11:23:25;;;;;;;4.70;2.28;;;;;;;;;;4999478;28;20154;-74
2022/11/18 11:26:09;;;;;;;8.32;2.25;;;;;;;;;;4997996;28;20045;-74
2022/11/18 11:29:23;;;;;;;6.03;2.17;;;;;;;;;;4996434;28;20042;-72
2022/11/18 11:32:22;;;;;;;5.75;1.88;;;;;;;;;;4927821;29;20171;-73
2022/11/18 11:35:00;;;;;;;6.68;1.90;;;;;;;;;;4999637;28;20034;-73
2022/11/18 11:37:50;;;;;;;6.35;1.80;;;;;;;;;;4999353;28;20038;-73
2022/11/18 11:40:20;;;;;;;3.95;2.20;;;;;;;;;;4999091;28;20084;-72
2022/11/18 11:43:27;;;;;;;3.95;1.90;;;;;;;;;;4999010;28;20030;-72
2022/11/18 11:46:05;;;;;;;3.45;1.73;;;;;;;;;;4996560;28;20401;-73
2022/11/18 11:48:50;;;;;;;6.18;2.08;;;;;;;;;;4999004;28;20053;-72
2022/11/18 11:51:26;;;;;;;4.28;1.73;;;;;;;;;;4999212;28;20108;-74
2022/11/18 11:54:01;;;;;;;6.47;2.58;;;;;;;;;;5006725;28;20155;-73
2022/11/18 11:56:36;;;;;;;7.75;2.75;;;;;;;;;;5017007;28;20038;-74
2022/11/18 11:59:39;;;;;;;5.03;2.60;;;;;;;;;;5015786;28;20084;-74
2022/11/18 12:02:23;;;;;;;4.82;1.90;;;;;;;;;;5013523;28;20065;-73
2022/11/18 12:05:14;;;;;;;4.90;2.03;;;;;;;;;;5013905;28;20503;-71
2022/11/18 12:07:46;;;;;;;6.75;2.17;;;;;;;;;;5007524;28;20116;-74
2022/11/18 12:10:30;;;;;;;4.45;1.67;;;;;;;;;;5014859;28;20481;-73
2022/11/18 12:13:01;;;;;;;7.32;2.30;;;;;;;;;;5015606;28;20518;-73
2022/11/18 12:16:01;;;;;;;5.60;2.78;;;;;;;;;;5015152;28;20034;-72
2022/11/18 12:19:07;;;;;;;4.10;2.10;;;;;;;;;;5014037;28;20037;-72
2022/11/18 12:21:46;;;;;;;5.55;2.50;;;;;;;;;;5015267;28;20046;-73
2022/11/18 12:24:35;;;;;;;6.28;2.67;;;;;;;;;;5014464;28;20026;-73
2022/11/18 12:27:08;;;;;;;3.47;2.20;;;;;;;;;;5011128;28;20045;-73
2022/11/18 12:29:53;;;;;;;3.22;1.75;;;;;;;;;;5015101;28;20176;-73
2022/11/18 12:32:41;;;;;;;5.18;2.10;;;;;;;;;;5015143;28;20045;-74
2022/11/18 12:35:10;;;;;;;8.20;2.40;;;;;;;;;;5015376;28;20108;-73
2022/11/18 12:37:50;;;;;;;6.38;2.70;;;;;;;;;;5013807;28;20507;-74
2022/11/18 12:40:35;;;;;;;8.80;2.67;;;;;;;;;;5014992;28;20033;-73
2022/11/18 12:45:55;;;;;;;5.68;1.92;;;;;;;;;;5014399;28;20034;-72
2022/11/18 12:48:38;;;;;;;;;;;;;;;;;;5015829;28;20026;-72
2022/11/18 12:51:17;;;;;;;7.55;2.92;;;;;;;;;;5013507;28;19914;-73
2022/11/18 12:53:45;;;;;;;7.65;2.90;;;;;;;;;;5014448;28;20164;-72
2022/11/18 12:56:21;;;;;;;6.72;3.40;;;;;;;;;;5013410;28;20052;-74
2022/11/18 12:58:54;;;;;;;7.20;3.70;;;;;;;;;;5014165;28;20197;-72
2022/11/18 13:01:28;;;;;;;4.75;2.10;;;;;;;;;;5012956;28;20065;-72
2022/11/18 13:04:21;;;;;;;8.10;2.40;;;;;;;;;;4994736;28;20114;-73
2022/11/18 13:06:47;;;;;;;5.22;2.90;;;;;;;;;;5017274;28;20034;-73
2022/11/18 13:09:22;;;;;;;7.75;2.22;;;;;;;;;;5007991;28;20204;-74
2022/11/18 13:11:58;;;;;;;3.80;2.33;;;;;;;;;;5013477;28;20402;-73
2022/11/18 13:20:29;;;;;;;5.85;3.47;;;;;;;;;;5003513;28;20038;-73
2022/11/18 13:26:11;;;;;;;9.10;2.60;;;;;;;;;;5010022;28;20495;-73
2022/11/18 13:28:39;;;;;;;;;;;;;;;;;;5011173;28;20054;-72
2022/11/18 13:31:39;;;;;;;5.32;2.42;;;;;;;;;;5011526;28;19917;-71
2022/11/18 13:34:17;;;;;;;6.97;2.78;;;;;;;;;;5011543;28;20037;-71
2022/11/18 13:36:45;;;;;;;6.95;2.75;;;;;;;;;;5012011;28;20135;-74
2022/11/18 13:39:23;;;;;;;12.63;3.05;;;;;;;;;;5008797;28;20056;-71
2022/11/18 13:42:05;;;;;;;13.00;3.97;;;;;;;;;;5010449;28;20037;-72
2022/11/18 13:44:38;;;;;;;23.70;4.70;;;;;;;;;;5010608;28;20492;-72
2022/11/18 13:47:25;;;;;;;11.32;4.53;;;;;;;;;;5012431;28;20104;-70
2022/11/18 13:50:00;;;;;;;7.80;4.20;;;;;;;;;;5008379;28;20045;-71
2022/11/18 13:52:33;;;;;;;6.97;3.40;;;;;;;;;;5009348;28;20037;-73
2022/11/18 13:55:01;;;;;;;10.07;3.63;;;;;;;;;;5007832;28;20510;-71
2022/11/18 13:57:28;;;;;;;6.40;3.38;;;;;;;;;;5010723;28;20034;-72
2022/11/18 13:59:54;;;;;;;5.50;3.50;;;;;;;;;;5008847;28;20372;-69
2022/11/18 14:02:21;;;;;;;7.50;3.65;;;;;;;;;;5009146;28;20034;-72
2022/11/18 14:04:56;;;;;;;4.97;3.00;;;;;;;;;;5006586;28;20030;-72
2022/11/18 14:07:30;;;;;;;8.30;3.33;;;;;;;;;;4990798;28;20034;-72
2022/11/18 14:10:02;;;;;;;8.88;3.50;;;;;;;;;;4992133;28;20050;-73
2022/11/18 14:12:32;;;;;;;10.65;4.03;;;;;;;;;;4997618;28;20472;-73
2022/11/18 14:15:21;;;;;;;10.50;4.60;;;;;;;;;;5009637;28;20030;-72
2022/11/18 14:17:59;;;;;;;12.35;4.78;;;;;;;;;;5010866;28;20128;-72
2022/11/18 14:20:28;;;;;;;8.98;4.80;;;;;;;;;;5007422;28;20030;-73
2022/11/18 14:23:04;;;;;;;11.55;5.90;;;;;;;;;;4969402;28;20428;-72
2022/11/18 14:25:33;;;;;;;14.13;7.07;;;;;;;;;;4971736;28;20125;-73
2022/11/18 14:28:17;;;;;;;13.13;8.20;;;;;;;;;;4971705;28;20485;-71
2022/11/18 14:31:11;;;;;;;21.80;11.32;;;;;;;;;;4969879;28;20045;-71
2022/11/18 14:33:38;;;;;;;15.77;10.73;;;;;;;;;;4973034;28;20033;-73
2022/11/18 14:36:14;;;;;;;17.20;9.23;;;;;;;;;;4971030;28;20027;-73
2022/11/18 14:38:50;;;;;;;15.15;8.13;;;;;;;;;;4983419;28;20042;-71
2022/11/18 14:44:04;;;;;;;8.63;4.93;;;;;;;;;;4972372;28;20065;-70
2022/11/18 14:46:39;;;;;;;14.18;5.38;;;;;;;;;;4968310;28;20027;-72
2022/11/18 14:49:11;;;;;;;9.13;4.93;;;;;;;;;;4971560;28;20027;-72
2022/11/18 14:51:37;;;;;;;13.70;5.90;;;;;;;;;;4972769;28;20080;-73
2022/11/18 14:54:04;;;;;;;11.38;5.53;;;;;;;;;;4972546;28;20015;-73
2022/11/18 14:56:31;;;;;;;11.00;4.50;;;;;;;;;;4971253;28;20489;-70
2022/11/18 14:58:58;;;;;;;10.70;3.88;;;;;;;;;;4970386;28;20034;-71
2022/11/18 15:01:26;;;;;;;10.80;3.90;;;;;;;;;;4972304;28;20668;-72
2022/11/18 15:03:53;;;;;;;6.47;3.10;;;;;;;;;;4972258;28;20045;-71
2022/11/18 15:06:22;;;;;;;7.93;2.72;;;;;;;;;;4972354;28;20047;-71
2022/11/18 15:08:51;;;;;;;8.15;2.80;;;;;;;;;;4972151;28;20058;-70
2022/11/18 15:11:20;;;;;;;8.50;4.00;;;;;;;;;;4970191;28;20109;-71
2022/11/18 15:13:46;;;;;;;4.65;3.03;;;;;;;;;;4972302;28;20037;-72
2022/11/18 15:16:15;;;;;;;6.40;4.53;;;;;;;;;;4971749;28;20110;-71
2022/11/18 15:18:42;;;;;;;6.55;4.65;;;;;;;;;;4971982;28;20026;-72
2022/11/18 15:21:09;;;;;;;11.82;5.22;;;;;;;;;;4983256;28;20069;-71
2022/11/18 15:23:35;;;;;;;8.60;4.40;;;;;;;;;;5011017;28;20325;-72